Terminal Aerodrome Forecast
Issued by NWS

Home | Current Version | Previous Version | Text Only | Print | Product List | Glossary On
Versions: 1 2 3 4 5 6 7 8 9 10 11 12 13 14 15 16 17 18 19 20 21 22 23 24 25 26 27 28 29 30 31 32 33 34 35 36 37
706
FTUS45 KLKN 292323
TAFELY
TAF
KELY 292323Z 3000/3024 01007KT P6SM VCTS SCT020 BKN035CB
     FM300200 35007KT P6SM -SHRA VCTS SCT020 BKN035CB
     FM300500 VRB04KT 6SM -RA SCT015 OVC030
     FM300900 VRB04KT 5SM -RA SCT010 OVC020
     FM301700 01016G26KT 6SM -SHRA SCT020 BKN035=

USA.gov is the U.S. government's official web portal to all federal, state and local government web resources and services.